EST,Max TemperatureF,Mean TemperatureF,Min TemperatureF,Max Dew PointF,MeanDew PointF,Min DewpointF,Max Humidity, Mean Humidity, Min Humidity, Max Sea Level PressureIn, Mean Sea Level PressureIn, Min Sea Level PressureIn, Max VisibilityMiles, Mean VisibilityMiles, Min VisibilityMiles, Max Wind SpeedMPH, Mean Wind SpeedMPH, Max Gust SpeedMPH,PrecipitationIn, CloudCover, Events, WindDirDegrees
2012-12-1,59,47,35,45,36,32,92,70,47,30.42,30.39,30.35,10,3,0,8,3,10,0.00,1,Fog,39
2012-12-2,55,46,37,46,41,33,89,75,61,30.41,30.32,30.21,10,6,0,17,7,23,T,2,Fog,201
2012-12-3,72,61,49,50,47,44,83,65,47,30.27,30.23,30.18,10,10,7,10,5,14,T,3,,258
2012-12-4,64,58,51,52,49,47,83,74,65,30.29,30.21,30.10,10,9,4,15,9,20,0.00,3,,204
2012-12-5,64,53,42,51,41,25,77,58,39,30.25,30.11,30.01,10,10,10,17,9,26,0.01,4,Rain,310
2012-12-6,44,37,29,28,24,20,78,63,48,30.38,30.31,30.25,10,10,10,16,7,19,0.00,1,,21
2012-12-7,57,43,29,50,41,25,85,76,66,30.26,30.12,29.99,10,10,10,14,5,17,T,7,,193
2012-12-8,60,53,45,55,50,42,89,83,77,30.02,29.96,29.92,10,3,0,14,5,17,0.12,8,Fog-Rain,249
2012-12-9,57,51,44,51,46,40,96,88,80,30.16,30.09,30.00,10,2,0,16,6,20,0.00,6,Fog,91
2012-12-10,70,62,54,60,54,49,90,82,73,30.00,29.78,29.65,10,6,0,17,11,27,T,5,Fog,214
2012-12-11,66,55,44,55,40,30,80,64,48,30.19,29.93,29.68,10,10,10,21,9,28,0.00,6,,352
2012-12-12,48,45,41,29,26,23,58,48,38,30.38,30.32,30.21,10,10,10,15,9,30,0.00,5,,28
2012-12-13,53,45,37,34,30,26,70,58,46,30.37,30.35,30.33,10,10,10,24,11,32,0.00,1,,27
2012-12-14,53,41,28,31,26,23,78,58,38,30.34,30.29,30.24,10,10,9,12,4,15,0.00,0,,306
2012-12-15,55,44,32,42,33,27,89,70,51,30.31,30.24,30.14,10,7,0,8,4,11,0.00,1,Fog,44
2012-12-16,58,54,49,52,48,43,89,83,77,30.12,29.99,29.88,10,6,0,14,6,18,0.31,8,Fog-Rain,209
2012-12-17,57,54,51,52,50,48,93,87,80,29.88,29.78,29.60,10,2,0,16,6,23,0.07,8,Fog-Rain,157
2012-12-18,62,54,46,52,44,30,86,65,43,29.80,29.62,29.57,10,9,2,20,11,27,0.01,3,Rain,262
2012-12-19,55,45,34,36,32,29,82,63,43,30.17,29.96,29.79,10,10,10,22,7,27,0.00,0,,319
2012-12-20,56,45,34,49,35,28,77,62,46,30.21,30.06,29.62,10,10,5,29,9,38,0.07,4,Rain,113
2012-12-21,59,49,39,54,40,21,86,63,40,29.58,29.41,29.29,10,7,2,41,17,51,0.52,8,Rain,250
2012-12-22,46,41,35,23,21,19,50,44,37,30.03,29.81,29.59,10,10,10,32,16,43,0.00,3,,310
2012-12-23,48,38,27,28,23,19,69,55,41,30.11,30.02,29.96,10,10,10,17,6,23,0.00,0,,251
2012-12-24,52,43,34,40,34,25,75,64,53,30.08,29.98,29.90,10,10,10,17,8,25,T,5,Rain,25
2012-12-25,54,47,39,39,35,30,76,61,45,30.22,30.06,29.90,10,9,7,15,8,18,0.00,4,,346
2012-12-26,61,50,39,55,47,30,86,78,70,30.23,29.63,29.33,10,6,1,31,14,41,2.33,7,Rain,102
2012-12-27,50,44,37,40,30,22,82,64,45,29.99,29.64,29.37,10,10,10,31,19,46,T,6,Rain,308
2012-12-28,45,40,34,28,26,24,75,62,49,30.14,30.07,29.99,10,10,10,15,6,21,0.00,2,,313
2012-12-29,46,41,35,40,35,26,83,69,55,30.04,29.67,29.50,,,,23,9,36,0.41,7,Rain,342
2012-12-30,44,38,32,25,21,18,55,46,36,30.33,30.08,29.78,,,,32,16,46,0.00,3,,327
2012-12-31,49,37,25,28,22,18,75,55,34,30.34,30.21,30.03,,,,14,6,18,0.00,3,,261